sensor_id;sensor_type;location;lat;lon;timestamp;P1;durP1;ratioP1;P2;durP2;ratioP2
19919;SDS011;10122;50.074;19.920;2023-11-18T00:00:21;10.15;;;8.80;;
19919;SDS011;10122;50.074;19.920;2023-11-18T00:02:48;11.07;;;8.63;;
19919;SDS011;10122;50.074;19.920;2023-11-18T00:05:14;9.15;;;8.25;;
19919;SDS011;10122;50.074;19.920;2023-11-18T00:07:40;9.73;;;8.73;;
19919;SDS011;10122;50.074;19.920;2023-11-18T00:10:07;10.23;;;8.88;;
19919;SDS011;10122;50.074;19.920;2023-11-18T00:12:36;9.48;;;8.55;;
19919;SDS011;10122;50.074;19.920;2023-11-18T00:15:06;9.40;;;8.50;;
19919;SDS011;10122;50.074;19.920;2023-11-18T00:17:34;9.85;;;8.80;;
19919;SDS011;10122;50.074;19.920;2023-11-18T00:20:00;9.45;;;8.55;;
19919;SDS011;10122;50.074;19.920;2023-11-18T00:22:28;9.77;;;8.27;;
19919;SDS011;10122;50.074;19.920;2023-11-18T00:24:54;10.20;;;8.75;;
19919;SDS011;10122;50.074;19.920;2023-11-18T00:27:20;9.63;;;8.65;;
19919;SDS011;10122;50.074;19.920;2023-11-18T00:29:50;10.85;;;8.80;;
19919;SDS011;10122;50.074;19.920;2023-11-18T00:32:18;10.00;;;9.00;;
19919;SDS011;10122;50.074;19.920;2023-11-18T00:34:44;9.85;;;8.73;;
19919;SDS011;10122;50.074;19.920;2023-11-18T00:37:10;10.18;;;8.93;;
19919;SDS011;10122;50.074;19.920;2023-11-18T00:39:36;13.13;;;9.00;;
19919;SDS011;10122;50.074;19.920;2023-11-18T00:42:02;10.25;;;9.23;;
19919;SDS011;10122;50.074;19.920;2023-11-18T00:44:28;13.48;;;9.80;;
19919;SDS011;10122;50.074;19.920;2023-11-18T00:46:54;12.38;;;9.75;;
19919;SDS011;10122;50.074;19.920;2023-11-18T00:49:22;11.65;;;10.00;;
19919;SDS011;10122;50.074;19.920;2023-11-18T00:51:48;12.38;;;9.13;;
19919;SDS011;10122;50.074;19.920;2023-11-18T00:54:15;11.30;;;8.70;;
19919;SDS011;10122;50.074;19.920;2023-11-18T00:56:41;11.90;;;9.65;;
19919;SDS011;10122;50.074;19.920;2023-11-18T00:59:07;10.65;;;9.55;;
19919;SDS011;10122;50.074;19.920;2023-11-18T01:01:33;12.40;;;9.52;;
19919;SDS011;10122;50.074;19.920;2023-11-18T01:03:59;11.35;;;9.15;;
19919;SDS011;10122;50.074;19.920;2023-11-18T01:06:25;10.48;;;8.70;;
19919;SDS011;10122;50.074;19.920;2023-11-18T01:08:52;14.77;;;9.43;;
19919;SDS011;10122;50.074;19.920;2023-11-18T01:11:18;13.18;;;9.88;;
19919;SDS011;10122;50.074;19.920;2023-11-18T01:13:48;10.90;;;8.95;;
19919;SDS011;10122;50.074;19.920;2023-11-18T01:16:14;10.05;;;8.25;;
19919;SDS011;10122;50.074;19.920;2023-11-18T01:18:41;10.20;;;9.20;;
19919;SDS011;10122;50.074;19.920;2023-11-18T01:21:07;10.57;;;9.35;;
19919;SDS011;10122;50.074;19.920;2023-11-18T01:23:36;13.38;;;9.68;;
19919;SDS011;10122;50.074;19.920;2023-11-18T01:26:03;12.32;;;9.40;;
19919;SDS011;10122;50.074;19.920;2023-11-18T01:28:36;11.57;;;9.48;;
19919;SDS011;10122;50.074;19.920;2023-11-18T01:31:04;10.05;;;9.05;;
19919;SDS011;10122;50.074;19.920;2023-11-18T01:33:32;10.65;;;9.23;;
19919;SDS011;10122;50.074;19.920;2023-11-18T01:36:03;11.27;;;9.63;;
19919;SDS011;10122;50.074;19.920;2023-11-18T01:38:29;13.65;;;9.95;;
19919;SDS011;10122;50.074;19.920;2023-11-18T01:40:55;12.15;;;9.93;;
19919;SDS011;10122;50.074;19.920;2023-11-18T01:43:21;12.10;;;9.85;;
19919;SDS011;10122;50.074;19.920;2023-11-18T01:45:48;11.10;;;9.38;;
19919;SDS011;10122;50.074;19.920;2023-11-18T01:48:14;12.23;;;9.55;;
19919;SDS011;10122;50.074;19.920;2023-11-18T01:50:43;9.98;;;8.70;;
19919;SDS011;10122;50.074;19.920;2023-11-18T01:53:11;11.68;;;9.73;;
19919;SDS011;10122;50.074;19.920;2023-11-18T01:55:39;11.60;;;9.45;;
19919;SDS011;10122;50.074;19.920;2023-11-18T01:58:05;15.55;;;10.32;;
19919;SDS011;10122;50.074;19.920;2023-11-18T02:00:42;10.48;;;9.38;;
19919;SDS011;10122;50.074;19.920;2023-11-18T02:03:09;12.45;;;9.60;;
19919;SDS011;10122;50.074;19.920;2023-11-18T02:05:36;13.13;;;10.15;;
19919;SDS011;10122;50.074;19.920;2023-11-18T02:08:03;9.82;;;8.60;;
19919;SDS011;10122;50.074;19.920;2023-11-18T02:10:30;11.05;;;9.35;;
19919;SDS011;10122;50.074;19.920;2023-11-18T02:16:01;13.15;;;10.38;;
19919;SDS011;10122;50.074;19.920;2023-11-18T02:18:30;13.30;;;10.57;;
19919;SDS011;10122;50.074;19.920;2023-11-18T02:20:56;13.20;;;10.30;;
19919;SDS011;10122;50.074;19.920;2023-11-18T02:23:23;12.18;;;9.88;;
19919;SDS011;10122;50.074;19.920;2023-11-18T02:25:49;10.48;;;9.30;;
19919;SDS011;10122;50.074;19.920;2023-11-18T02:28:15;11.90;;;9.65;;
19919;SDS011;10122;50.074;19.920;2023-11-18T02:30:41;12.15;;;9.50;;
19919;SDS011;10122;50.074;19.920;2023-11-18T02:35:59;11.32;;;9.90;;
19919;SDS011;10122;50.074;19.920;2023-11-18T02:38:27;14.70;;;9.80;;
19919;SDS011;10122;50.074;19.920;2023-11-18T02:40:57;14.45;;;9.98;;
19919;SDS011;10122;50.074;19.920;2023-11-18T02:43:24;13.70;;;9.98;;
19919;SDS011;10122;50.074;19.920;2023-11-18T02:45:50;14.27;;;10.25;;
19919;SDS011;10122;50.074;19.920;2023-11-18T02:48:19;14.02;;;9.98;;
19919;SDS011;10122;50.074;19.920;2023-11-18T02:50:45;12.18;;;10.32;;
19919;SDS011;10122;50.074;19.920;2023-11-18T02:53:11;11.40;;;10.18;;
19919;SDS011;10122;50.074;19.920;2023-11-18T02:55:38;12.48;;;10.02;;
19919;SDS011;10122;50.074;19.920;2023-11-18T02:58:05;13.38;;;10.60;;
19919;SDS011;10122;50.074;19.920;2023-11-18T03:00:32;11.45;;;9.85;;
19919;SDS011;10122;50.074;19.920;2023-11-18T03:02:59;10.88;;;9.60;;
19919;SDS011;10122;50.074;19.920;2023-11-18T03:05:25;11.90;;;10.15;;
19919;SDS011;10122;50.074;19.920;2023-11-18T03:07:51;11.70;;;10.07;;
19919;SDS011;10122;50.074;19.920;2023-11-18T03:10:20;13.20;;;10.82;;
19919;SDS011;10122;50.074;19.920;2023-11-18T03:12:49;12.65;;;10.18;;
19919;SDS011;10122;50.074;19.920;2023-11-18T03:15:15;13.63;;;10.57;;
19919;SDS011;10122;50.074;19.920;2023-11-18T03:17:51;12.55;;;10.07;;
19919;SDS011;10122;50.074;19.920;2023-11-18T03:20:18;12.90;;;10.18;;
19919;SDS011;10122;50.074;19.920;2023-11-18T03:22:44;10.55;;;9.38;;
19919;SDS011;10122;50.074;19.920;2023-11-18T03:25:11;11.85;;;10.48;;
19919;SDS011;10122;50.074;19.920;2023-11-18T03:27:37;11.55;;;9.77;;
19919;SDS011;10122;50.074;19.920;2023-11-18T03:30:04;10.73;;;9.65;;
19919;SDS011;10122;50.074;19.920;2023-11-18T03:32:31;13.15;;;9.57;;
19919;SDS011;10122;50.074;19.920;2023-11-18T03:34:57;12.18;;;10.15;;
19919;SDS011;10122;50.074;19.920;2023-11-18T03:37:26;12.65;;;9.55;;
19919;SDS011;10122;50.074;19.920;2023-11-18T03:39:52;11.60;;;9.13;;
19919;SDS011;10122;50.074;19.920;2023-11-18T03:42:18;10.27;;;9.25;;
19919;SDS011;10122;50.074;19.920;2023-11-18T03:44:44;10.70;;;9.43;;
19919;SDS011;10122;50.074;19.920;2023-11-18T03:47:12;11.18;;;9.95;;
19919;SDS011;10122;50.074;19.920;2023-11-18T03:49:39;10.68;;;9.32;;
19919;SDS011;10122;50.074;19.920;2023-11-18T03:52:05;10.73;;;9.27;;
19919;SDS011;10122;50.074;19.920;2023-11-18T03:54:31;9.70;;;8.80;;
19919;SDS011;10122;50.074;19.920;2023-11-18T03:56:57;12.45;;;9.77;;
19919;SDS011;10122;50.074;19.920;2023-11-18T03:59:24;11.23;;;10.07;;
19919;SDS011;10122;50.074;19.920;2023-11-18T04:01:50;10.68;;;9.63;;
19919;SDS011;10122;50.074;19.920;2023-11-18T04:04:16;11.05;;;9.73;;
19919;SDS011;10122;50.074;19.920;2023-11-18T04:06:43;10.18;;;8.95;;
19919;SDS011;10122;50.074;19.920;2023-11-18T04:09:09;8.55;;;7.63;;
19919;SDS011;10122;50.074;19.920;2023-11-18T04:11:36;12.00;;;9.02;;
19919;SDS011;10122;50.074;19.920;2023-11-18T04:14:03;9.93;;;8.93;;
19919;SDS011;10122;50.074;19.920;2023-11-18T04:16:29;11.57;;;8.60;;
19919;SDS011;10122;50.074;19.920;2023-11-18T04:18:55;10.25;;;9.20;;
19919;SDS011;10122;50.074;19.920;2023-11-18T04:21:21;9.45;;;8.52;;
19919;SDS011;10122;50.074;19.920;2023-11-18T04:23:47;9.30;;;8.40;;
19919;SDS011;10122;50.074;19.920;2023-11-18T04:26:14;8.50;;;7.70;;
19919;SDS011;10122;50.074;19.920;2023-11-18T04:28:40;9.25;;;8.45;;
19919;SDS011;10122;50.074;19.920;2023-11-18T04:31:06;9.05;;;8.10;;
19919;SDS011;10122;50.074;19.920;2023-11-18T04:33:32;8.50;;;7.78;;
19919;SDS011;10122;50.074;19.920;2023-11-18T04:35:58;9.75;;;8.75;;
19919;SDS011;10122;50.074;19.920;2023-11-18T04:38:25;9.43;;;8.52;;
19919;SDS011;10122;50.074;19.920;2023-11-18T04:40:51;9.65;;;8.85;;
19919;SDS011;10122;50.074;19.920;2023-11-18T04:43:19;10.15;;;9.18;;
19919;SDS011;10122;50.074;19.920;2023-11-18T04:45:45;10.52;;;9.48;;
19919;SDS011;10122;50.074;19.920;2023-11-18T04:48:11;10.65;;;9.55;;
19919;SDS011;10122;50.074;19.920;2023-11-18T04:50:39;11.77;;;9.38;;
19919;SDS011;10122;50.074;19.920;2023-11-18T04:53:05;11.07;;;9.98;;
19919;SDS011;10122;50.074;19.920;2023-11-18T04:55:33;10.65;;;9.55;;
19919;SDS011;10122;50.074;19.920;2023-11-18T04:58:00;9.82;;;8.73;;
19919;SDS011;10122;50.074;19.920;2023-11-18T05:00:27;9.85;;;8.85;;
19919;SDS011;10122;50.074;19.920;2023-11-18T05:02:53;11.10;;;9.57;;
19919;SDS011;10122;50.074;19.920;2023-11-18T05:05:20;11.23;;;9.57;;
19919;SDS011;10122;50.074;19.920;2023-11-18T05:07:47;10.07;;;8.88;;
19919;SDS011;10122;50.074;19.920;2023-11-18T05:10:13;10.07;;;9.07;;
19919;SDS011;10122;50.074;19.920;2023-11-18T05:12:39;10.18;;;9.18;;
19919;SDS011;10122;50.074;19.920;2023-11-18T05:15:05;11.00;;;9.30;;
19919;SDS011;10122;50.074;19.920;2023-11-18T05:17:41;10.63;;;9.55;;
19919;SDS011;10122;50.074;19.920;2023-11-18T05:20:07;12.15;;;10.10;;
19919;SDS011;10122;50.074;19.920;2023-11-18T05:22:34;10.68;;;9.52;;
19919;SDS011;10122;50.074;19.920;2023-11-18T05:25:01;10.25;;;9.25;;
19919;SDS011;10122;50.074;19.920;2023-11-18T05:27:29;10.05;;;9.10;;
19919;SDS011;10122;50.074;19.920;2023-11-18T05:29:56;10.10;;;9.13;;
19919;SDS011;10122;50.074;19.920;2023-11-18T05:32:26;11.95;;;9.50;;
19919;SDS011;10122;50.074;19.920;2023-11-18T05:34:52;10.15;;;9.23;;
19919;SDS011;10122;50.074;19.920;2023-11-18T05:37:22;10.95;;;9.80;;
19919;SDS011;10122;50.074;19.920;2023-11-18T05:39:49;11.00;;;9.90;;
19919;SDS011;10122;50.074;19.920;2023-11-18T05:42:24;9.98;;;9.05;;
19919;SDS011;10122;50.074;19.920;2023-11-18T05:44:50;10.73;;;9.63;;
19919;SDS011;10122;50.074;19.920;2023-11-18T05:47:23;11.27;;;9.38;;
19919;SDS011;10122;50.074;19.920;2023-11-18T05:49:50;10.70;;;9.57;;
19919;SDS011;10122;50.074;19.920;2023-11-18T05:52:16;10.60;;;9.50;;
19919;SDS011;10122;50.074;19.920;2023-11-18T05:54:42;10.52;;;9.10;;
19919;SDS011;10122;50.074;19.920;2023-11-18T05:57:08;11.40;;;10.25;;
19919;SDS011;10122;50.074;19.920;2023-11-18T05:59:34;11.18;;;10.00;;
19919;SDS011;10122;50.074;19.920;2023-11-18T06:02:01;13.02;;;10.60;;
19919;SDS011;10122;50.074;19.920;2023-11-18T06:04:28;11.98;;;10.65;;
19919;SDS011;10122;50.074;19.920;2023-11-18T06:06:56;12.20;;;10.15;;
19919;SDS011;10122;50.074;19.920;2023-11-18T06:09:22;11.63;;;10.07;;
19919;SDS011;10122;50.074;19.920;2023-11-18T06:11:50;12.18;;;10.27;;
19919;SDS011;10122;50.074;19.920;2023-11-18T06:14:18;11.15;;;10.00;;
19919;SDS011;10122;50.074;19.920;2023-11-18T06:16:44;13.77;;;10.27;;
19919;SDS011;10122;50.074;19.920;2023-11-18T06:19:11;11.02;;;9.93;;
19919;SDS011;10122;50.074;19.920;2023-11-18T06:21:38;11.57;;;10.02;;
19919;SDS011;10122;50.074;19.920;2023-11-18T06:24:05;14.52;;;9.70;;
19919;SDS011;10122;50.074;19.920;2023-11-18T06:26:32;13.30;;;9.95;;
19919;SDS011;10122;50.074;19.920;2023-11-18T06:29:01;11.77;;;10.57;;
19919;SDS011;10122;50.074;19.920;2023-11-18T06:31:27;10.68;;;9.52;;
19919;SDS011;10122;50.074;19.920;2023-11-18T06:33:54;10.60;;;9.50;;
19919;SDS011;10122;50.074;19.920;2023-11-18T06:36:20;14.15;;;8.80;;
19919;SDS011;10122;50.074;19.920;2023-11-18T06:38:49;9.52;;;8.68;;
19919;SDS011;10122;50.074;19.920;2023-11-18T06:41:16;10.80;;;9.10;;
19919;SDS011;10122;50.074;19.920;2023-11-18T06:43:43;8.88;;;8.07;;
19919;SDS011;10122;50.074;19.920;2023-11-18T06:46:19;8.52;;;7.80;;
19919;SDS011;10122;50.074;19.920;2023-11-18T06:48:51;9.77;;;8.88;;
19919;SDS011;10122;50.074;19.920;2023-11-18T06:51:22;9.13;;;8.30;;
19919;SDS011;10122;50.074;19.920;2023-11-18T06:53:52;9.70;;;8.52;;
19919;SDS011;10122;50.074;19.920;2023-11-18T06:56:22;9.40;;;8.50;;
19919;SDS011;10122;50.074;19.920;2023-11-18T06:58:48;9.05;;;8.20;;
19919;SDS011;10122;50.074;19.920;2023-11-18T07:01:14;8.98;;;8.15;;
19919;SDS011;10122;50.074;19.920;2023-11-18T07:03:44;8.57;;;7.82;;
19919;SDS011;10122;50.074;19.920;2023-11-18T07:06:10;8.80;;;8.00;;
19919;SDS011;10122;50.074;19.920;2023-11-18T07:08:39;8.85;;;8.00;;
19919;SDS011;10122;50.074;19.920;2023-11-18T07:11:05;9.45;;;8.45;;
19919;SDS011;10122;50.074;19.920;2023-11-18T07:13:32;9.02;;;8.10;;
19919;SDS011;10122;50.074;19.920;2023-11-18T07:16:02;9.20;;;8.30;;
19919;SDS011;10122;50.074;19.920;2023-11-18T07:18:30;9.00;;;8.07;;
19919;SDS011;10122;50.074;19.920;2023-11-18T07:20:56;8.95;;;8.15;;
19919;SDS011;10122;50.074;19.920;2023-11-18T07:23:23;8.60;;;7.80;;
19919;SDS011;10122;50.074;19.920;2023-11-18T07:25:49;8.45;;;7.80;;
19919;SDS011;10122;50.074;19.920;2023-11-18T07:28:15;9.38;;;7.90;;
19919;SDS011;10122;50.074;19.920;2023-11-18T07:30:42;8.13;;;7.40;;
19919;SDS011;10122;50.074;19.920;2023-11-18T07:33:12;8.23;;;7.50;;
19919;SDS011;10122;50.074;19.920;2023-11-18T07:35:38;8.07;;;7.38;;
19919;SDS011;10122;50.074;19.920;2023-11-18T07:38:04;8.02;;;7.43;;
19919;SDS011;10122;50.074;19.920;2023-11-18T07:40:32;7.60;;;7.00;;
19919;SDS011;10122;50.074;19.920;2023-11-18T07:42:58;8.00;;;7.43;;
19919;SDS011;10122;50.074;19.920;2023-11-18T07:45:26;7.90;;;7.30;;
19919;SDS011;10122;50.074;19.920;2023-11-18T07:47:54;8.63;;;7.82;;
19919;SDS011;10122;50.074;19.920;2023-11-18T07:50:20;8.07;;;7.47;;
19919;SDS011;10122;50.074;19.920;2023-11-18T07:52:47;8.27;;;7.47;;
19919;SDS011;10122;50.074;19.920;2023-11-18T07:55:16;8.55;;;7.85;;
19919;SDS011;10122;50.074;19.920;2023-11-18T07:57:43;8.55;;;7.85;;
19919;SDS011;10122;50.074;19.920;2023-11-18T08:00:09;9.10;;;8.30;;
19919;SDS011;10122;50.074;19.920;2023-11-18T08:02:36;8.45;;;7.75;;
19919;SDS011;10122;50.074;19.920;2023-11-18T08:05:03;9.10;;;8.40;;
19919;SDS011;10122;50.074;19.920;2023-11-18T08:07:33;7.97;;;7.47;;
19919;SDS011;10122;50.074;19.920;2023-11-18T08:09:59;9.25;;;8.55;;
19919;SDS011;10122;50.074;19.920;2023-11-18T08:12:25;9.65;;;8.93;;
19919;SDS011;10122;50.074;19.920;2023-11-18T08:14:51;10.50;;;9.60;;
19919;SDS011;10122;50.074;19.920;2023-11-18T08:17:17;9.70;;;8.80;;
19919;SDS011;10122;50.074;19.920;2023-11-18T08:19:44;10.13;;;9.18;;
19919;SDS011;10122;50.074;19.920;2023-11-18T08:22:11;9.23;;;8.32;;
19919;SDS011;10122;50.074;19.920;2023-11-18T08:24:38;9.05;;;8.25;;
19919;SDS011;10122;50.074;19.920;2023-11-18T08:27:04;8.80;;;8.05;;
19919;SDS011;10122;50.074;19.920;2023-11-18T08:29:32;9.18;;;8.27;;
19919;SDS011;10122;50.074;19.920;2023-11-18T08:31:58;11.98;;;9.50;;
19919;SDS011;10122;50.074;19.920;2023-11-18T08:34:24;10.40;;;9.48;;
19919;SDS011;10122;50.074;19.920;2023-11-18T08:36:51;11.27;;;10.07;;
19919;SDS011;10122;50.074;19.920;2023-11-18T08:39:17;12.20;;;10.68;;
19919;SDS011;10122;50.074;19.920;2023-11-18T08:41:45;11.80;;;10.55;;
19919;SDS011;10122;50.074;19.920;2023-11-18T08:44:11;12.60;;;10.27;;
19919;SDS011;10122;50.074;19.920;2023-11-18T08:46:40;12.38;;;10.63;;
19919;SDS011;10122;50.074;19.920;2023-11-18T08:49:07;14.65;;;10.80;;
19919;SDS011;10122;50.074;19.920;2023-11-18T08:51:38;12.25;;;10.68;;
19919;SDS011;10122;50.074;19.920;2023-11-18T08:54:07;12.20;;;11.00;;
19919;SDS011;10122;50.074;19.920;2023-11-18T08:56:50;11.15;;;10.05;;
19919;SDS011;10122;50.074;19.920;2023-11-18T08:59:19;14.50;;;11.32;;
19919;SDS011;10122;50.074;19.920;2023-11-18T09:01:50;12.77;;;10.27;;
19919;SDS011;10122;50.074;19.920;2023-11-18T09:04:20;13.57;;;10.75;;
19919;SDS011;10122;50.074;19.920;2023-11-18T09:06:46;11.98;;;10.40;;
19919;SDS011;10122;50.074;19.920;2023-11-18T09:09:13;12.00;;;9.80;;
19919;SDS011;10122;50.074;19.920;2023-11-18T09:11:40;13.93;;;10.48;;
19919;SDS011;10122;50.074;19.920;2023-11-18T09:14:07;12.93;;;10.00;;
19919;SDS011;10122;50.074;19.920;2023-11-18T09:16:34;11.93;;;10.00;;
19919;SDS011;10122;50.074;19.920;2023-11-18T09:19:04;13.15;;;10.10;;
19919;SDS011;10122;50.074;19.920;2023-11-18T09:21:31;13.75;;;10.57;;
19919;SDS011;10122;50.074;19.920;2023-11-18T09:24:00;13.30;;;10.70;;
19919;SDS011;10122;50.074;19.920;2023-11-18T09:26:30;13.73;;;10.18;;
19919;SDS011;10122;50.074;19.920;2023-11-18T09:28:57;11.43;;;10.23;;
19919;SDS011;10122;50.074;19.920;2023-11-18T09:31:24;10.65;;;9.63;;
19919;SDS011;10122;50.074;19.920;2023-11-18T09:33:50;11.05;;;9.85;;
19919;SDS011;10122;50.074;19.920;2023-11-18T09:36:19;11.02;;;9.43;;
19919;SDS011;10122;50.074;19.920;2023-11-18T09:38:46;9.18;;;8.40;;
19919;SDS011;10122;50.074;19.920;2023-11-18T09:41:12;9.35;;;8.55;;
19919;SDS011;10122;50.074;19.920;2023-11-18T09:43:42;10.90;;;9.70;;
19919;SDS011;10122;50.074;19.920;2023-11-18T09:48:48;10.82;;;9.73;;
19919;SDS011;10122;50.074;19.920;2023-11-18T09:51:25;9.73;;;8.85;;
19919;SDS011;10122;50.074;19.920;2023-11-18T09:53:57;10.52;;;9.52;;
19919;SDS011;10122;50.074;19.920;2023-11-18T09:59:04;10.77;;;9.75;;
19919;SDS011;10122;50.074;19.920;2023-11-18T10:01:32;11.18;;;10.00;;
19919;SDS011;10122;50.074;19.920;2023-11-18T10:04:03;11.43;;;9.90;;
19919;SDS011;10122;50.074;19.920;2023-11-18T10:06:32;11.65;;;10.45;;
19919;SDS011;10122;50.074;19.920;2023-11-18T10:09:00;10.18;;;9.23;;
19919;SDS011;10122;50.074;19.920;2023-11-18T10:11:40;11.05;;;10.05;;
19919;SDS011;10122;50.074;19.920;2023-11-18T10:14:06;10.10;;;9.15;;
19919;SDS011;10122;50.074;19.920;2023-11-18T10:16:33;9.10;;;8.40;;
19919;SDS011;10122;50.074;19.920;2023-11-18T10:19:00;10.05;;;9.15;;
19919;SDS011;10122;50.074;19.920;2023-11-18T10:21:36;11.05;;;9.88;;
19919;SDS011;10122;50.074;19.920;2023-11-18T10:24:04;11.00;;;9.90;;
19919;SDS011;10122;50.074;19.920;2023-11-18T10:26:37;11.55;;;10.32;;
19919;SDS011;10122;50.074;19.920;2023-11-18T10:29:03;10.82;;;9.75;;
19919;SDS011;10122;50.074;19.920;2023-11-18T10:31:32;11.38;;;10.20;;
19919;SDS011;10122;50.074;19.920;2023-11-18T10:34:00;9.95;;;9.02;;
19919;SDS011;10122;50.074;19.920;2023-11-18T10:36:29;10.93;;;9.20;;
19919;SDS011;10122;50.074;19.920;2023-11-18T10:38:58;10.60;;;9.55;;
19919;SDS011;10122;50.074;19.920;2023-11-18T10:41:25;11.10;;;10.10;;
19919;SDS011;10122;50.074;19.920;2023-11-18T10:44:06;11.15;;;10.05;;
19919;SDS011;10122;50.074;19.920;2023-11-18T10:46:38;10.63;;;9.60;;
19919;SDS011;10122;50.074;19.920;2023-11-18T10:49:05;11.45;;;9.70;;
19919;SDS011;10122;50.074;19.920;2023-11-18T10:51:35;10.73;;;9.65;;
19919;SDS011;10122;50.074;19.920;2023-11-18T10:54:04;8.75;;;8.07;;
19919;SDS011;10122;50.074;19.920;2023-11-18T10:56:31;10.70;;;9.57;;
19919;SDS011;10122;50.074;19.920;2023-11-18T10:58:58;11.60;;;10.50;;
19919;SDS011;10122;50.074;19.920;2023-11-18T11:01:27;13.95;;;11.38;;
19919;SDS011;10122;50.074;19.920;2023-11-18T11:03:53;13.77;;;11.10;;
19919;SDS011;10122;50.074;19.920;2023-11-18T11:06:26;12.32;;;10.57;;
19919;SDS011;10122;50.074;19.920;2023-11-18T11:08:58;12.48;;;11.00;;
19919;SDS011;10122;50.074;19.920;2023-11-18T11:11:25;11.93;;;10.45;;
19919;SDS011;10122;50.074;19.920;2023-11-18T11:13:56;12.02;;;10.70;;
19919;SDS011;10122;50.074;19.920;2023-11-18T11:16:23;14.32;;;11.20;;
19919;SDS011;10122;50.074;19.920;2023-11-18T11:18:54;11.82;;;10.63;;
19919;SDS011;10122;50.074;19.920;2023-11-18T11:21:27;12.02;;;10.82;;
19919;SDS011;10122;50.074;19.920;2023-11-18T11:24:00;9.63;;;8.70;;
19919;SDS011;10122;50.074;19.920;2023-11-18T11:29:17;12.57;;;10.15;;
19919;SDS011;10122;50.074;19.920;2023-11-18T11:31:45;10.90;;;9.93;;
19919;SDS011;10122;50.074;19.920;2023-11-18T11:34:17;11.95;;;10.48;;
19919;SDS011;10122;50.074;19.920;2023-11-18T11:36:49;13.68;;;10.48;;
19919;SDS011;10122;50.074;19.920;2023-11-18T11:39:15;11.50;;;10.30;;
19919;SDS011;10122;50.074;19.920;2023-11-18T11:41:54;11.63;;;10.43;;
19919;SDS011;10122;50.074;19.920;2023-11-18T11:44:21;9.30;;;8.50;;
19919;SDS011;10122;50.074;19.920;2023-11-18T11:46:54;10.93;;;9.93;;
19919;SDS011;10122;50.074;19.920;2023-11-18T11:49:21;11.35;;;9.65;;
19919;SDS011;10122;50.074;19.920;2023-11-18T11:51:48;12.15;;;10.75;;
19919;SDS011;10122;50.074;19.920;2023-11-18T11:54:25;11.02;;;9.98;;
19919;SDS011;10122;50.074;19.920;2023-11-18T11:56:55;11.70;;;10.45;;
19919;SDS011;10122;50.074;19.920;2023-11-18T12:02:02;9.93;;;8.98;;
19919;SDS011;10122;50.074;19.920;2023-11-18T12:04:33;10.60;;;9.50;;
19919;SDS011;10122;50.074;19.920;2023-11-18T12:07:03;10.98;;;9.88;;
19919;SDS011;10122;50.074;19.920;2023-11-18T12:09:32;11.18;;;10.00;;
19919;SDS011;10122;50.074;19.920;2023-11-18T12:12:02;11.65;;;10.32;;
19919;SDS011;10122;50.074;19.920;2023-11-18T12:14:29;10.63;;;9.63;;
19919;SDS011;10122;50.074;19.920;2023-11-18T12:17:06;10.80;;;8.38;;
19919;SDS011;10122;50.074;19.920;2023-11-18T12:19:39;8.40;;;7.80;;
19919;SDS011;10122;50.074;19.920;2023-11-18T12:22:18;9.98;;;9.07;;
19919;SDS011;10122;50.074;19.920;2023-11-18T12:25:34;9.48;;;8.57;;
19919;SDS011;10122;50.074;19.920;2023-11-18T12:40:52;9.70;;;8.75;;
19919;SDS011;10122;50.074;19.920;2023-11-18T12:43:27;9.00;;;8.30;;
19919;SDS011;10122;50.074;19.920;2023-11-18T12:46:09;9.77;;;8.88;;
19919;SDS011;10122;50.074;19.920;2023-11-18T12:48:42;10.40;;;8.60;;
19919;SDS011;10122;50.074;19.920;2023-11-18T12:51:09;8.40;;;7.70;;
19919;SDS011;10122;50.074;19.920;2023-11-18T12:53:44;9.50;;;8.60;;
19919;SDS011;10122;50.074;19.920;2023-11-18T12:56:11;10.15;;;9.15;;
19919;SDS011;10122;50.074;19.920;2023-11-18T12:58:39;10.30;;;9.25;;
19919;SDS011;10122;50.074;19.920;2023-11-18T13:01:05;10.82;;;9.70;;
19919;SDS011;10122;50.074;19.920;2023-11-18T13:03:31;9.95;;;8.93;;
19919;SDS011;10122;50.074;19.920;2023-11-18T13:05:59;9.75;;;8.65;;
19919;SDS011;10122;50.074;19.920;2023-11-18T13:08:25;9.90;;;8.88;;
19919;SDS011;10122;50.074;19.920;2023-11-18T13:10:51;13.52;;;9.15;;
19919;SDS011;10122;50.074;19.920;2023-11-18T13:13:18;10.32;;;9.30;;
19919;SDS011;10122;50.074;19.920;2023-11-18T13:15:44;13.52;;;9.35;;
19919;SDS011;10122;50.074;19.920;2023-11-18T13:18:10;9.10;;;8.40;;
19919;SDS011;10122;50.074;19.920;2023-11-18T13:20:37;10.57;;;9.25;;
19919;SDS011;10122;50.074;19.920;2023-11-18T13:23:04;11.40;;;9.32;;
19919;SDS011;10122;50.074;19.920;2023-11-18T13:25:36;9.98;;;8.98;;
19919;SDS011;10122;50.074;19.920;2023-11-18T13:28:10;9.00;;;8.20;;
19919;SDS011;10122;50.074;19.920;2023-11-18T13:30:36;9.98;;;8.90;;
19919;SDS011;10122;50.074;19.920;2023-11-18T13:33:03;10.68;;;9.60;;
19919;SDS011;10122;50.074;19.920;2023-11-18T13:35:30;9.18;;;8.35;;
19919;SDS011;10122;50.074;19.920;2023-11-18T13:37:56;9.63;;;8.63;;
19919;SDS011;10122;50.074;19.920;2023-11-18T13:40:23;11.60;;;9.90;;
19919;SDS011;10122;50.074;19.920;2023-11-18T13:43:01;10.38;;;9.32;;
19919;SDS011;10122;50.074;19.920;2023-11-18T13:45:30;10.43;;;9.40;;
19919;SDS011;10122;50.074;19.920;2023-11-18T13:47:56;10.55;;;8.65;;
19919;SDS011;10122;50.074;19.920;2023-11-18T13:50:22;11.32;;;9.43;;
19919;SDS011;10122;50.074;19.920;2023-11-18T13:52:50;10.50;;;9.35;;
19919;SDS011;10122;50.074;19.920;2023-11-18T13:55:16;9.10;;;8.30;;
19919;SDS011;10122;50.074;19.920;2023-11-18T13:57:45;10.60;;;9.55;;
19919;SDS011;10122;50.074;19.920;2023-11-18T14:00:11;12.40;;;9.27;;
19919;SDS011;10122;50.074;19.920;2023-11-18T14:02:41;10.57;;;9.43;;
19919;SDS011;10122;50.074;19.920;2023-11-18T14:05:17;11.82;;;9.82;;
19919;SDS011;10122;50.074;19.920;2023-11-18T14:07:45;9.20;;;8.40;;
19919;SDS011;10122;50.074;19.920;2023-11-18T14:10:11;10.40;;;9.50;;
19919;SDS011;10122;50.074;19.920;2023-11-18T14:12:38;10.98;;;9.43;;
19919;SDS011;10122;50.074;19.920;2023-11-18T14:15:04;10.90;;;9.90;;
19919;SDS011;10122;50.074;19.920;2023-11-18T14:17:34;11.43;;;9.32;;
19919;SDS011;10122;50.074;19.920;2023-11-18T14:20:01;8.38;;;7.65;;
19919;SDS011;10122;50.074;19.920;2023-11-18T14:22:27;12.93;;;9.45;;
19919;SDS011;10122;50.074;19.920;2023-11-18T14:24:53;10.38;;;9.30;;
19919;SDS011;10122;50.074;19.920;2023-11-18T14:27:19;10.73;;;9.43;;
19919;SDS011;10122;50.074;19.920;2023-11-18T14:29:45;10.20;;;8.93;;
19919;SDS011;10122;50.074;19.920;2023-11-18T14:32:11;11.32;;;10.10;;
19919;SDS011;10122;50.074;19.920;2023-11-18T14:34:39;12.63;;;10.13;;
19919;SDS011;10122;50.074;19.920;2023-11-18T14:37:07;11.15;;;9.95;;
19919;SDS011;10122;50.074;19.920;2023-11-18T14:39:33;10.45;;;9.55;;
19919;SDS011;10122;50.074;19.920;2023-11-18T14:42:01;12.50;;;10.88;;
19919;SDS011;10122;50.074;19.920;2023-11-18T14:44:28;12.95;;;10.23;;
19919;SDS011;10122;50.074;19.920;2023-11-18T14:46:55;11.30;;;10.10;;
19919;SDS011;10122;50.074;19.920;2023-11-18T14:49:21;17.27;;;10.48;;
19919;SDS011;10122;50.074;19.920;2023-11-18T14:51:47;10.98;;;9.98;;
19919;SDS011;10122;50.074;19.920;2023-11-18T14:54:13;11.60;;;10.40;;